Worksop, United Kingdom
Current Conditions -  °F | °C
As of 7:20 AM on Sunday 23 Nov 2014 (Local Time) from EGCN Reporting Station
Light Rain Light Rain  
Wind Chill:   Ceiling: 3100
Heat Index:   Visibility: 6mi
Dew Point:   Wind: 2mph
Humidity: 93%   Direction: NA
Pressure: 30.03"   Gusts: NA
Location:  53.31°N, 1.12°W
Report Text: EGCN 230720Z VRB02KT 9999 -RA BKN031 08/07 Q1017
Loading
Personal Weather Stations






























Interactive Weather Map New forecast layout! Learn more

10-Day Weather Forecast

Advertisements
Track Severe Weather on mobile